Flight Track Log - Related Links

Times and Time Zones

All times are in EDT time to prevent confusion due to time zone crossing. See the CTL61 flight status page for this flight to view local times or setup timezone preferences in your user account.

Time Position Orientation Groundspeed Altitude Reporting Facility
EDT Latitude Longitude Course Direction KTS MPH feet Rate Location/Type
Tue 09:19:57 PM 39.9950 -82.8958 188° South 108 124 1,100  Level Indianapolis Center
Tue 09:21:12 PM 39.9692 -82.9003 188° South 97 112 2,500 1,103 Climbing Indianapolis Center
Tue 09:22:13 PM 39.9425 -82.8833 154° Southeast 102 117 3,600 1,082 Climbing Indianapolis Center
Tue 09:23:14 PM 39.9172 -82.8675 154° Southeast 101 116 4,700 1,082 Climbing Indianapolis Center
Tue 09:24:15 PM 39.8869 -82.8486 154° Southeast 102 117 5,800 984 Climbing Indianapolis Center
Tue 09:25:16 PM 39.8583 -82.8306 154° Southeast 110 127 6,700 634 Climbing Indianapolis Center
Tue 09:26:18 PM 39.8267 -82.8100 154° Southeast 124 143 7,100 174 Climbing Indianapolis Center
Tue 09:27:34 PM 39.7750 -82.7758 153° Southeast 169 194 7,100  Level Indianapolis Center
Tue 09:28:20 PM 39.7447 -82.7558 153° Southeast 163 188 7,100  Level Indianapolis Center
Tue 09:29:21 PM 39.7039 -82.7272 152° Southeast 165 190 7,100  Level Indianapolis Center
Tue 09:30:23 PM 39.6608 -82.7000 154° Southeast 168 193 7,100  Level Indianapolis Center
Tue 09:31:24 PM 39.6192 -82.6719 153° Southeast 168 193 7,100 -49 Level Indianapolis Center
Tue 09:32:25 PM 39.5744 -82.6436 154° Southeast 174 200 7,000  Descending Indianapolis Center
Tue 09:33:27 PM 39.5303 -82.6133 152° Southeast 177 204 7,100 49 Climbing Indianapolis Center
Tue 09:34:28 PM 39.4875 -82.5864 154° Southeast 172 198 7,100  Level Indianapolis Center
Tue 09:35:29 PM 39.4439 -82.5614 156° South 170 196 7,100 -49 Level Indianapolis Center
Tue 09:36:30 PM 39.4017 -82.5319 152° Southeast 170 196 7,000  Descending Indianapolis Center
Tue 09:37:32 PM 39.3592 -82.5039 153° Southeast 170 196 7,100  Climbing Indianapolis Center
Tue 09:38:33 PM 39.3156 -82.4786 156° South 170 196 7,000 -49 Descending Indianapolis Center
Tue 09:39:34 PM 39.2739 -82.4514 153° Southeast 171 197 7,000  Level Indianapolis Center
Tue 09:40:36 PM 39.2308 -82.4247 154° Southeast 170 196 7,000  Level Indianapolis Center
Tue 09:41:37 PM 39.1794 -82.3911 153° Southeast 172 198 7,000  Level Indianapolis Center
Tue 09:42:38 PM 39.1375 -82.3658 155° Southeast 169 194 7,000  Level Indianapolis Center
Tue 09:43:40 PM 39.0942 -82.3383 154° Southeast 172 198 7,000  Level Indianapolis Center
Tue 09:44:41 PM 39.0517 -82.3122 154° Southeast 170 196 7,000  Level Indianapolis Center
Tue 09:45:42 PM 39.0089 -82.2869 155° Southeast 170 196 7,000  Level Indianapolis Center
Tue 09:46:44 PM 38.9656 -82.2606 155° Southeast 172 198 7,000  Level Indianapolis Center
Tue 09:47:45 PM 38.9231 -82.2331 153° Southeast 170 196 7,000  Level Indianapolis Center
Tue 09:48:47 PM 38.8792 -82.2058 154° Southeast 175 201 7,000  Level Indianapolis Center
Tue 09:49:48 PM 38.8367 -82.1808 155° Southeast 172 198 7,000  Level Indianapolis Center
Tue 09:50:49 PM 38.7858 -82.1492 154° Southeast 171 197 7,000 49 Level Indianapolis Center
Tue 09:51:51 PM 38.7431 -82.1219 154° Southeast 171 197 7,100 49 Climbing Indianapolis Center
Tue 09:52:52 PM 38.7000 -82.0975 156° South 170 196 7,100  Level Indianapolis Center
Tue 09:53:54 PM 38.6556 -82.0697 154° Southeast 176 203 7,100  Level Indianapolis Center
Tue 09:54:55 PM 38.6119 -82.0422 154° Southeast 175 201 7,100  Level Indianapolis Center
Tue 09:55:57 PM 38.5678 -82.0153 154° Southeast 176 203 7,100  Level Indianapolis Center
Tue 09:56:58 PM 38.5236 -81.9911 157° South 173 199 7,100  Level Indianapolis Center
Tue 09:57:59 PM 38.4792 -81.9622 153° Southeast 179 206 7,100  Level Indianapolis Center
Tue 09:59:01 PM 38.4256 -81.9297 155° Southeast 179 206 7,100  Level Indianapolis Center
Tue 10:00:02 PM 38.3817 -81.9050 156° South 174 200 7,100  Level Indianapolis Center
Tue 10:01:04 PM 38.3369 -81.8772 154° Southeast 176 203 7,100  Level Indianapolis Center
Tue 10:02:05 PM 38.2919 -81.8508 155° Southeast 178 205 7,100 49 Level Indianapolis Center
Tue 10:03:06 PM 38.2475 -81.8244 155° Southeast 177 204 7,200  Climbing Indianapolis Center
Tue 10:04:08 PM 38.2033 -81.7978 155° Southeast 176 203 7,100  Descending Indianapolis Center
Tue 10:05:09 PM 38.1583 -81.7700 154° Southeast 178 205 7,200  Climbing Indianapolis Center
Tue 10:06:11 PM 38.1144 -81.7439 155° Southeast 176 203 7,100 -49 Descending Indianapolis Center
Tue 10:07:12 PM 38.0700 -81.7175 155° Southeast 176 203 7,100  Level Indianapolis Center
Tue 10:08:13 PM 38.0172 -81.6847 154° Southeast 175 201 7,100  Level Indianapolis Center
Tue 10:09:15 PM 37.9744 -81.6592 155° Southeast 173 199 7,100  Level Indianapolis Center
Tue 10:10:16 PM 37.9322 -81.6325 154° Southeast 170 196 7,100  Level Indianapolis Center
Tue 10:11:17 PM 37.8883 -81.6039 153° Southeast 174 200 7,100  Level Indianapolis Center
Tue 10:12:18 PM 37.8469 -81.5753 151° Southeast 171 197 7,100 -49 Level Indianapolis Center
Tue 10:13:20 PM 37.8008 -81.5436 152° Southeast 171 197 7,000 -49 Descending Indianapolis Center
Tue 10:14:21 PM 37.7575 -81.5156 153° Southeast 173 199 7,000  Level Indianapolis Center
Tue 10:15:22 PM 37.7197 -81.4919 154° Southeast 169 194 7,000  Level Indianapolis Center
Tue 10:16:24 PM 37.6733 -81.4611 152° Southeast 164 189 7,000  Level Indianapolis Center
Tue 10:17:25 PM 37.6328 -81.4347 153° Southeast 166 191 7,000  Level Indianapolis Center
Tue 10:18:26 PM 37.5922 -81.4075 152° Southeast 168 193 7,000  Level Indianapolis Center

Login

Don't have an account? Register now (free) for customized features, flight alerts, and more!